Check out our new BloomSky Weather System.

Active alerts


No alerts


Thunder radar  blitzortung!


Rain radar more information rain snow radar


Visit our other weather sites:

Template documentation
and downloads

And another site



Weather Underground History page Text

Daily Summary for March 30, 2017 Units:  Metric    English   Both
« Previous Day
Next Day »
Daily Weekly Monthly Yearly Custom
  High: Low: Average:
Temperature: 25.3 °C 15.2 °C 19.3 °C
Dew Point: 18.7 °C 9.6 °C 12.3 °C
Humidity: 99 % 39 % 67 %
Wind Speed: 20.9 km/h 0 km/h 3.7 km/h
Wind Gust: 25.7 km/h - -
Wind:- - West
Pressure: 1012.8 hPa 1007.7 hPa -
Precipitation: 0 mm    
Historical Graphs
 
 
Tabular Data for March 30, 2017
Time Temperature Dew Point Pressure Wind Wind Speed Wind Gust Humidity Rainfall Rate (Hourly)
00:01 19.2 °C 18.7 °C 1009 hPa Calm     97 % 0 mm
00:06 18.9 °C 18.4 °C 1009 hPa Calm     97 % 0 mm
00:11 19 °C 18.7 °C 1008.7 hPa Calm     98 % 0 mm
00:16 19 °C 18.7 °C 1009 hPa Calm     98 % 0 mm
00:21 18.9 °C 18.6 °C 1009 hPa Calm     98 % 0 mm
00:26 18.8 °C 18.5 °C 1009 hPa Calm     98 % 0 mm
00:31 18.7 °C 18.4 °C 1009 hPa Calm     98 % 0 mm
00:36 18.7 °C 18.4 °C 1009 hPa Calm     98 % 0 mm
00:41 18.5 °C 18.2 °C 1009 hPa Calm     98 % 0 mm
00:46 18.5 °C 18.2 °C 1009 hPa Calm     98 % 0 mm
00:51 18.4 °C 18.1 °C 1008.7 hPa Calm     98 % 0 mm
00:56 18.4 °C 18.1 °C 1008.7 hPa Calm     98 % 0 mm
01:01 18.5 °C 18.2 °C 1008.4 hPa Calm     98 % 0 mm
01:06 18.5 °C 18.2 °C 1008.7 hPa Calm     98 % 0 mm
01:11 18.4 °C 18.1 °C 1008.4 hPa Calm     98 % 0 mm
01:16 18.3 °C 18 °C 1008.4 hPa Calm     98 % 0 mm
01:21 18.1 °C 17.8 °C 1008.4 hPa Calm     98 % 0 mm
01:22 18.1 °C 17.8 °C 1008.4 hPa Calm     98 % 0 mm
01:27 18.1 °C 17.9 °C 1008.4 hPa Calm     99 % 0 mm
01:32 18.1 °C 17.8 °C 1008 hPa Calm     98 % 0 mm
01:37 18.1 °C 17.8 °C 1008 hPa Calm     98 % 0 mm
01:42 18.1 °C 17.9 °C 1008 hPa Calm     99 % 0 mm
01:47 18 °C 17.7 °C 1008 hPa Calm     98 % 0 mm
01:52 17.8 °C 17.5 °C 1008.4 hPa Calm     98 % 0 mm
01:57 17.9 °C 17.7 °C 1008.4 hPa Calm     99 % 0 mm
02:02 17.9 °C 17.7 °C 1008.4 hPa Calm     99 % 0 mm
02:07 18 °C 17.8 °C 1008.7 hPa Calm     99 % 0 mm
02:13 18.1 °C 17.9 °C 1008.7 hPa Calm     99 % 0 mm
02:18 18.2 °C 18 °C 1009.4 hPa West 3.2 km/h 12.9 km/h 99 % 0 mm
02:23 17.7 °C 17.2 °C 1009.4 hPa NNE 8 km/h 12.9 km/h 97 % 0 mm
02:28 17.2 °C 16.2 °C 1009.4 hPa North 4.8 km/h 12.9 km/h 94 % 0 mm
02:33 17.3 °C 15.5 °C 1009.4 hPa North 9.7 km/h 14.5 km/h 89 % 0 mm
02:38 17.6 °C 14.9 °C 1010 hPa WNW 4.8 km/h 14.5 km/h 84 % 0 mm
02:43 17.9 °C 14.6 °C 1009.7 hPa NW 4.8 km/h 16.1 km/h 81 % 0 mm
02:48 17.9 °C 14.4 °C 1010 hPa NNW 3.2 km/h 16.1 km/h 80 % 0 mm
02:53 17.9 °C 14.4 °C 1009.7 hPa NNW 4.8 km/h 16.1 km/h 80 % 0 mm
02:58 17.8 °C 14.3 °C 1010 hPa NW 6.4 km/h 12.9 km/h 80 % 0 mm
03:03 17.8 °C 14.3 °C 1010 hPa NNW 1.6 km/h 9.7 km/h 80 % 0 mm
03:08 17.7 °C 14.2 °C 1010 hPa NNW 1.6 km/h 9.7 km/h 80 % 0 mm
03:13 17.6 °C 14.1 °C 1010 hPa NNW 9.7 km/h 9.7 km/h 80 % 0 mm
03:18 17.6 °C 14.1 °C 1009.7 hPa Calm   9.7 km/h 80 % 0 mm
03:23 17.5 °C 14 °C 1010 hPa Calm   11.3 km/h 80 % 0 mm
03:28 17.5 °C 14 °C 1010.4 hPa Calm   11.3 km/h 80 % 0 mm
03:33 17.4 °C 13.9 °C 1010 hPa NW 4.8 km/h 11.3 km/h 80 % 0 mm
03:38 17.4 °C 13.9 °C 1010 hPa NNW 3.2 km/h 8 km/h 80 % 0 mm
03:44 17.4 °C 13.9 °C 1010 hPa NW 6.4 km/h 16.1 km/h 80 % 0 mm
03:49 17.4 °C 13.9 °C 1010 hPa NW 3.2 km/h 16.1 km/h 80 % 0 mm
03:54 17.4 °C 13.9 °C 1010 hPa WNW 3.2 km/h 16.1 km/h 80 % 0 mm
03:59 17.4 °C 13.9 °C 1010 hPa WNW 3.2 km/h 14.5 km/h 80 % 0 mm
04:04 17.4 °C 13.9 °C 1010 hPa NW 8 km/h 14.5 km/h 80 % 0 mm
04:09 17.4 °C 13.9 °C 1010 hPa NNW 17.7 km/h 17.7 km/h 80 % 0 mm
04:14 17.4 °C 13.9 °C 1010.4 hPa Calm   17.7 km/h 80 % 0 mm
04:19 17.4 °C 14.1 °C 1010.4 hPa WNW 3.2 km/h 19.3 km/h 81 % 0 mm
04:24 17.3 °C 14 °C 1010.4 hPa NW 4.8 km/h 19.3 km/h 81 % 0 mm
04:29 17.3 °C 14 °C 1010 hPa WNW 4.8 km/h 19.3 km/h 81 % 0 mm
04:34 17.3 °C 14 °C 1010 hPa NW 11.3 km/h 16.1 km/h 81 % 0 mm
04:39 17.3 °C 14 °C 1010 hPa WNW 4.8 km/h 16.1 km/h 81 % 0 mm
04:44 17.3 °C 14 °C 1010 hPa NNW 6.4 km/h 12.9 km/h 81 % 0 mm
04:49 17.2 °C 13.9 °C 1010.4 hPa North 11.3 km/h 12.9 km/h 81 % 0 mm
04:54 17.2 °C 13.9 °C 1010.7 hPa NW 4.8 km/h 17.7 km/h 81 % 0 mm
04:59 17.2 °C 13.9 °C 1010.4 hPa NW 8 km/h 17.7 km/h 81 % 0 mm
05:04 17.2 °C 13.7 °C 1010.4 hPa NW 16.1 km/h 17.7 km/h 80 % 0 mm
05:09 17.1 °C 13.8 °C 1010.7 hPa NW 11.3 km/h 22.5 km/h 81 % 0 mm
05:14 17.1 °C 13.8 °C 1010.7 hPa NW 3.2 km/h 22.5 km/h 81 % 0 mm
05:19 17 °C 13.7 °C 1010.7 hPa NW 3.2 km/h 22.5 km/h 81 % 0 mm
05:24 16.9 °C 13.6 °C 1010.7 hPa NNW 6.4 km/h 19.3 km/h 81 % 0 mm
05:29 16.9 °C 13.6 °C 1010.7 hPa West 20.9 km/h 20.9 km/h 81 % 0 mm
05:34 16.8 °C 13.5 °C 1010.4 hPa NW 4.8 km/h 20.9 km/h 81 % 0 mm
05:39 16.7 °C 13.4 °C 1010.7 hPa WNW 3.2 km/h 20.9 km/h 81 % 0 mm
05:44 16.7 °C 13.4 °C 1010.7 hPa NW 6.4 km/h 20.9 km/h 81 % 0 mm
05:49 16.6 °C 13.3 °C 1010.4 hPa NW 8 km/h 16.1 km/h 81 % 0 mm
05:54 16.6 °C 13.3 °C 1010 hPa NW 9.7 km/h 14.5 km/h 81 % 0 mm
05:59 16.5 °C 13.2 °C 1010.4 hPa NW 4.8 km/h 17.7 km/h 81 % 0 mm
06:04 16.4 °C 13.3 °C 1010.4 hPa NW 4.8 km/h 19.3 km/h 82 % 0 mm
06:09 16.4 °C 13.3 °C 1010.4 hPa NNE 4.8 km/h 19.3 km/h 82 % 0 mm
06:14 16.3 °C 13.2 °C 1010.4 hPa NW 8 km/h 19.3 km/h 82 % 0 mm
06:19 16.3 °C 13 °C 1010.4 hPa NW 9.7 km/h 14.5 km/h 81 % 0 mm
06:24 16.2 °C 12.9 °C 1010.4 hPa NW 6.4 km/h 25.7 km/h 81 % 0 mm
06:29 16.2 °C 12.9 °C 1010 hPa NW 8 km/h 25.7 km/h 81 % 0 mm
06:34 16.1 °C 12.8 °C 1010 hPa West 9.7 km/h 25.7 km/h 81 % 0 mm
06:39 16.1 °C 13 °C 1010 hPa NNW 4.8 km/h 17.7 km/h 82 % 0 mm
06:44 15.9 °C 12.8 °C 1010 hPa NW 3.2 km/h 17.7 km/h 82 % 0 mm
06:49 15.9 °C 12.8 °C 1010 hPa NW 6.4 km/h 17.7 km/h 82 % 0 mm
06:54 15.8 °C 12.9 °C 1010 hPa NNW 6.4 km/h 17.7 km/h 83 % 0 mm
06:59 15.7 °C 12.8 °C 1009.7 hPa NNW 14.5 km/h 17.7 km/h 83 % 0 mm
07:04 15.6 °C 12.7 °C 1009.7 hPa WNW 6.4 km/h 17.7 km/h 83 % 0 mm
07:09 15.5 °C 12.4 °C 1010 hPa WNW 6.4 km/h 20.9 km/h 82 % 0 mm
07:14 15.4 °C 12.2 °C 1009.7 hPa WNW 8 km/h 20.9 km/h 81 % 0 mm
07:19 15.4 °C 11.8 °C 1010 hPa NNW 8 km/h 22.5 km/h 79 % 0 mm
07:24 15.4 °C 11.8 °C 1010 hPa NW 9.7 km/h 22.5 km/h 79 % 0 mm
07:29 15.4 °C 11.8 °C 1010 hPa WNW 6.4 km/h 22.5 km/h 79 % 0 mm
07:34 15.3 °C 11.7 °C 1010 hPa WNW 6.4 km/h 20.9 km/h 79 % 0 mm
07:39 15.3 °C 11.5 °C 1010 hPa WNW 11.3 km/h 19.3 km/h 78 % 0 mm
07:44 15.3 °C 11.5 °C 1010 hPa SW 3.2 km/h 25.7 km/h 78 % 0 mm
07:49 15.3 °C 11.5 °C 1010 hPa WNW 8 km/h 25.7 km/h 78 % 0 mm
07:54 15.3 °C 11.3 °C 1010.4 hPa NNW 6.4 km/h 25.7 km/h 77 % 0 mm
08:00 15.3 °C 11.3 °C 1010.4 hPa North 4.8 km/h 19.3 km/h 77 % 0 mm
08:05 15.2 °C 11 °C 1010.4 hPa NNW 6.4 km/h 19.3 km/h 76 % 0 mm
08:10 15.2 °C 11.2 °C 1010.4 hPa NW 4.8 km/h 19.3 km/h 77 % 0 mm
08:15 15.2 °C 11 °C 1010.4 hPa NNW 8 km/h 19.3 km/h 76 % 0 mm
08:20 15.2 °C 11.2 °C 1010.7 hPa WNW 11.3 km/h 19.3 km/h 77 % 0 mm
08:25 15.2 °C 11 °C 1011.1 hPa NW 4.8 km/h 19.3 km/h 76 % 0 mm
08:30 15.2 °C 11 °C 1011.1 hPa NW 12.9 km/h 19.3 km/h 76 % 0 mm
08:35 15.2 °C 11 °C 1011.1 hPa WNW 9.7 km/h 17.7 km/h 76 % 0 mm
08:40 15.2 °C 11 °C 1011.1 hPa NNW 12.9 km/h 17.7 km/h 76 % 0 mm
08:45 15.2 °C 11 °C 1011.1 hPa NW 8 km/h 17.7 km/h 76 % 0 mm
08:50 15.3 °C 11.1 °C 1011.1 hPa NW 11.3 km/h 17.7 km/h 76 % 0 mm
08:55 15.2 °C 11 °C 1011.1 hPa NW 11.3 km/h 22.5 km/h 76 % 0 mm
09:00 15.2 °C 11 °C 1011.4 hPa NNW 4.8 km/h 22.5 km/h 76 % 0 mm
09:05 15.2 °C 11 °C 1011.7 hPa WNW 4.8 km/h 22.5 km/h 76 % 0 mm
09:10 15.3 °C 11.1 °C 1012.1 hPa NNW 3.2 km/h 17.7 km/h 76 % 0 mm
09:15 15.5 °C 11.3 °C 1012.4 hPa North 1.6 km/h 14.5 km/h 76 % 0 mm
09:20 15.7 °C 11.5 °C 1012.4 hPa NW 3.2 km/h 14.5 km/h 76 % 0 mm
09:25 15.9 °C 11.3 °C 1012.4 hPa NW 1.6 km/h 11.3 km/h 74 % 0 mm
09:30 16.1 °C 11.3 °C 1012.4 hPa NNW 4.8 km/h 11.3 km/h 73 % 0 mm
09:35 16.1 °C 11.1 °C 1012.4 hPa WNW 4.8 km/h 11.3 km/h 72 % 0 mm
09:40 16.4 °C 11.3 °C 1012.8 hPa Calm   11.3 km/h 72 % 0 mm
09:45 16.6 °C 11.3 °C 1012.4 hPa ENE 1.6 km/h 8 km/h 71 % 0 mm
09:50 16.7 °C 11.4 °C 1012.4 hPa NNW 1.6 km/h 6.4 km/h 71 % 0 mm
09:55 16.9 °C 11.4 °C 1012.8 hPa Calm   6.4 km/h 70 % 0 mm
10:00 17.2 °C 11.5 °C 1012.8 hPa Calm   6.4 km/h 69 % 0 mm
10:05 17.6 °C 11.8 °C 1012.4 hPa West 4.8 km/h 9.7 km/h 69 % 0 mm
10:10 17.7 °C 11.3 °C 1012.4 hPa NW 3.2 km/h 14.5 km/h 66 % 0 mm
10:15 17.7 °C 10.8 °C 1012.4 hPa NW 8 km/h 14.5 km/h 64 % 0 mm
10:20 17.7 °C 11 °C 1012.4 hPa North 8 km/h 14.5 km/h 65 % 0 mm
10:22 17.6 °C 11.2 °C 1012.4 hPa NNE 8 km/h 14.5 km/h 66 % 0 mm
10:27 17.8 °C 11.4 °C 1012.1 hPa West 3.2 km/h 12.9 km/h 66 % 0 mm
10:32 17.9 °C 11.2 °C 1012.1 hPa NNE 9.7 km/h 14.5 km/h 65 % 0 mm
10:37 18.2 °C 11 °C 1012.1 hPa NW 11.3 km/h 17.7 km/h 63 % 0 mm
10:42 18.3 °C 10.9 °C 1012.1 hPa NW 6.4 km/h 17.7 km/h 62 % 0 mm
10:47 18.5 °C 10.6 °C 1012.4 hPa NW 8 km/h 17.7 km/h 60 % 0 mm
10:52 18.7 °C 11 °C 1012.1 hPa NW 8 km/h 20.9 km/h 61 % 0 mm
10:57 18.8 °C 10.9 °C 1012.1 hPa NNW 9.7 km/h 20.9 km/h 60 % 0 mm
11:02 18.8 °C 10.4 °C 1012.1 hPa WNW 11.3 km/h 20.9 km/h 58 % 0 mm
11:07 19.1 °C 10.4 °C 1012.1 hPa NW 8 km/h 20.9 km/h 57 % 0 mm
11:12 19.2 °C 11 °C 1012.1 hPa NW 8 km/h 20.9 km/h 59 % 0 mm
11:17 19.5 °C 11 °C 1011.7 hPa NW 8 km/h 20.9 km/h 58 % 0 mm
11:22 19.6 °C 10.8 °C 1011.7 hPa NNW 11.3 km/h 16.1 km/h 57 % 0 mm
11:27 19.8 °C 10.8 °C 1011.7 hPa North 4.8 km/h 16.1 km/h 56 % 0 mm
11:32 19.9 °C 10.9 °C 1011.7 hPa WNW 6.4 km/h 16.1 km/h 56 % 0 mm
11:37 20.1 °C 11.3 °C 1011.7 hPa NW 8 km/h 16.1 km/h 57 % 0 mm
11:42 20.3 °C 10.7 °C 1011.7 hPa NNE 4.8 km/h 14.5 km/h 54 % 0 mm
11:47 20.3 °C 11 °C 1011.7 hPa NW 3.2 km/h 19.3 km/h 55 % 0 mm
11:52 20.4 °C 10.2 °C 1011.7 hPa NNE 3.2 km/h 19.3 km/h 52 % 0 mm
11:57 20.4 °C 9.9 °C 1011.7 hPa Calm   19.3 km/h 51 % 0 mm
12:02 20.6 °C 11.2 °C 1011.7 hPa Calm   14.5 km/h 55 % 0 mm
12:07 20.8 °C 11.2 °C 1011.7 hPa NNW 4.8 km/h 14.5 km/h 54 % 0 mm
12:12 21.1 °C 12 °C 1011.7 hPa Calm   14.5 km/h 56 % 0 mm
12:17 21.3 °C 11 °C 1011.7 hPa NNW 1.6 km/h 14.5 km/h 52 % 0 mm
12:22 21.3 °C 10.5 °C 1011.7 hPa NNW 14.5 km/h 14.5 km/h 50 % 0 mm
12:27 21.1 °C 10 °C 1011.7 hPa WNW 3.2 km/h 17.7 km/h 49 % 0 mm
12:32 21.1 °C 9.7 °C 1011.4 hPa NNW 4.8 km/h 17.7 km/h 48 % 0 mm
12:37 21 °C 9.9 °C 1011.4 hPa NNW 12.9 km/h 17.7 km/h 49 % 0 mm
12:42 20.9 °C 9.8 °C 1011.4 hPa NW 3.2 km/h 16.1 km/h 49 % 0 mm
12:47 20.9 °C 10.4 °C 1011.1 hPa NW 6.4 km/h 16.1 km/h 51 % 0 mm
12:52 21.1 °C 10.6 °C 1011.1 hPa NNW 3.2 km/h 16.1 km/h 51 % 0 mm
12:57 21.3 °C 9.8 °C 1011.1 hPa NW 1.6 km/h 11.3 km/h 48 % 0 mm
13:03 21.2 °C 10.1 °C 1011.1 hPa NW 6.4 km/h 12.9 km/h 49 % 0 mm
13:08 21.4 °C 9.9 °C 1011.1 hPa NNW 1.6 km/h 12.9 km/h 48 % 0 mm
13:13 21.6 °C 10.1 °C 1011.1 hPa NNW 4.8 km/h 12.9 km/h 48 % 0 mm
13:18 21.9 °C 12.2 °C 1011.1 hPa SW 3.2 km/h 12.9 km/h 54 % 0 mm
13:23 22.1 °C 11.2 °C 1011.1 hPa SSE 3.2 km/h 12.9 km/h 50 % 0 mm
13:28 22.2 °C 11.3 °C 1010.7 hPa NNW 11.3 km/h 12.9 km/h 50 % 0 mm
13:33 22.3 °C 11.1 °C 1010.7 hPa NNW 9.7 km/h 11.3 km/h 49 % 0 mm
13:38 22 °C 11.1 °C 1010.7 hPa NW 4.8 km/h 14.5 km/h 50 % 0 mm
13:43 22.1 °C 11.2 °C 1010.4 hPa NNW 6.4 km/h 17.7 km/h 50 % 0 mm
13:48 22.3 °C 12 °C 1010.4 hPa WSW 1.6 km/h 17.7 km/h 52 % 0 mm
13:53 22.4 °C 10.5 °C 1010.4 hPa Calm   17.7 km/h 47 % 0 mm
13:58 22.4 °C 12.1 °C 1010.4 hPa NW 6.4 km/h 12.9 km/h 52 % 0 mm
14:03 22.8 °C 12.1 °C 1010 hPa NW 3.2 km/h 9.7 km/h 51 % 0 mm
14:08 23 °C 11.4 °C 1010 hPa North 4.8 km/h 14.5 km/h 48 % 0 mm
14:13 23.1 °C 11.2 °C 1010 hPa SW 3.2 km/h 17.7 km/h 47 % 0 mm
14:18 22.8 °C 10.2 °C 1010 hPa NW 11.3 km/h 17.7 km/h 45 % 0 mm
14:23 22.8 °C 10.9 °C 1010 hPa NNW 3.2 km/h 20.9 km/h 47 % 0 mm
14:28 22.8 °C 11.5 °C 1010 hPa NW 3.2 km/h 20.9 km/h 49 % 0 mm
14:33 23.2 °C 10.9 °C 1010 hPa SW 1.6 km/h 20.9 km/h 46 % 0 mm
14:38 23.4 °C 11.8 °C 1010 hPa WSW 3.2 km/h 14.5 km/h 48 % 0 mm
14:43 23.3 °C 12 °C 1009.7 hPa West 6.4 km/h 16.1 km/h 49 % 0 mm
14:48 23.4 °C 11.4 °C 1010 hPa Calm   16.1 km/h 47 % 0 mm
14:53 23.7 °C 11.1 °C 1009.7 hPa West 3.2 km/h 16.1 km/h 45 % 0 mm
14:58 23.4 °C 10.5 °C 1009.7 hPa WNW 12.9 km/h 16.1 km/h 44 % 0 mm
15:03 23.6 °C 11 °C 1009.7 hPa WNW 3.2 km/h 16.1 km/h 45 % 0 mm
15:08 23.6 °C 10.6 °C 1009.4 hPa NW 9.7 km/h 16.1 km/h 44 % 0 mm
15:13 23.6 °C 10.6 °C 1009.4 hPa WNW 4.8 km/h 19.3 km/h 44 % 0 mm
15:18 23.8 °C 11.5 °C 1009.4 hPa WSW 3.2 km/h 19.3 km/h 46 % 0 mm
15:19 23.9 °C 11.2 °C 1009.4 hPa SW 4.8 km/h 19.3 km/h 45 % 0 mm
15:24 24.2 °C 11.5 °C 1009.4 hPa North 1.6 km/h 19.3 km/h 45 % 0 mm
15:29 24.3 °C 11.3 °C 1009.4 hPa NW 8 km/h 16.1 km/h 44 % 0 mm
15:34 24.3 °C 11.9 °C 1009.4 hPa NW 3.2 km/h 14.5 km/h 46 % 0 mm
15:39 24.2 °C 10.5 °C 1009 hPa NNW 1.6 km/h 14.5 km/h 42 % 0 mm
15:44 24.2 °C 10.8 °C 1009 hPa WNW 11.3 km/h 12.9 km/h 43 % 0 mm
15:49 24.3 °C 11.3 °C 1009 hPa WNW 9.7 km/h 12.9 km/h 44 % 0 mm
15:54 24.6 °C 11.2 °C 1009 hPa WNW 4.8 km/h 12.9 km/h 43 % 0 mm
15:59 24.5 °C 9.6 °C 1008.7 hPa NW 3.2 km/h 12.9 km/h 39 % 0 mm
16:04 24.4 °C 10.3 °C 1008.7 hPa NW 11.3 km/h 12.9 km/h 41 % 0 mm
16:09 24.3 °C 10.2 °C 1008.4 hPa NW 4.8 km/h 12.9 km/h 41 % 0 mm
16:14 24.4 °C 11.7 °C 1008.4 hPa WNW 3.2 km/h 12.9 km/h 45 % 0 mm
16:19 24.6 °C 11.2 °C 1008.4 hPa WNW 3.2 km/h 12.9 km/h 43 % 0 mm
16:24 24.6 °C 11.2 °C 1008.4 hPa NNW 1.6 km/h 12.9 km/h 43 % 0 mm
16:29 24.8 °C 10.3 °C 1008.4 hPa NW 3.2 km/h 9.7 km/h 40 % 0 mm
16:34 24.8 °C 10.3 °C 1008.4 hPa NW 3.2 km/h 9.7 km/h 40 % 0 mm
16:39 24.7 °C 10.9 °C 1008.4 hPa WNW 1.6 km/h 9.7 km/h 42 % 0 mm
16:44 24.8 °C 9.9 °C 1008.4 hPa NW 3.2 km/h 12.9 km/h 39 % 0 mm
16:49 24.8 °C 10.3 °C 1008.4 hPa NW 4.8 km/h 12.9 km/h 40 % 0 mm
16:54 24.9 °C 10.4 °C 1008 hPa NW 6.4 km/h 12.9 km/h 40 % 0 mm
17:00 25.1 °C 10.2 °C 1008.4 hPa West 1.6 km/h 12.9 km/h 39 % 0 mm
17:05 25.2 °C 10.3 °C 1008.4 hPa WSW 1.6 km/h 12.9 km/h 39 % 0 mm
17:10 25.1 °C 10.2 °C 1008.4 hPa NW 3.2 km/h 9.7 km/h 39 % 0 mm
17:15 25 °C 10.5 °C 1008.4 hPa NW 1.6 km/h 11.3 km/h 40 % 0 mm
17:20 25.1 °C 10.9 °C 1008.4 hPa West 3.2 km/h 11.3 km/h 41 % 0 mm
17:25 25.3 °C 11.1 °C 1008.4 hPa SSW 6.4 km/h 11.3 km/h 41 % 0 mm
17:30 25.2 °C 10.3 °C 1008.4 hPa NW 3.2 km/h 9.7 km/h 39 % 0 mm
17:35 25.3 °C 10.3 °C 1008.4 hPa West 4.8 km/h 9.7 km/h 39 % 0 mm
17:40 25.3 °C 11.1 °C 1008.4 hPa SW 3.2 km/h 9.7 km/h 41 % 0 mm
17:45 25.2 °C 10.6 °C 1008.4 hPa SW 1.6 km/h 9.7 km/h 40 % 0 mm
17:50 25.2 °C 11 °C 1008.4 hPa SSW 6.4 km/h 11.3 km/h 41 % 0 mm
17:55 25.2 °C 11 °C 1008 hPa SW 1.6 km/h 11.3 km/h 41 % 0 mm
18:00 25.1 °C 10.9 °C 1008 hPa WSW 1.6 km/h 11.3 km/h 41 % 0 mm
18:05 25.1 °C 10.9 °C 1008 hPa Calm   9.7 km/h 41 % 0 mm
18:10 25.2 °C 11.4 °C 1008 hPa WSW 3.2 km/h 9.7 km/h 42 % 0 mm
18:15 25.3 °C 11.5 °C 1008 hPa Calm   9.7 km/h 42 % 0 mm
18:20 25.1 °C 10.9 °C 1008 hPa Calm   8 km/h 41 % 0 mm
18:25 25 °C 11.2 °C 1008 hPa Calm   8 km/h 42 % 0 mm
18:30 24.9 °C 10.7 °C 1008 hPa SSW 1.6 km/h 8 km/h 41 % 0 mm
18:35 24.8 °C 11 °C 1008 hPa West 3.2 km/h 6.4 km/h 42 % 0 mm
18:40 24.8 °C 11 °C 1007.7 hPa Calm   6.4 km/h 42 % 0 mm
18:45 24.7 °C 10.6 °C 1007.7 hPa Calm   6.4 km/h 41 % 0 mm
18:50 24.6 °C 10.5 °C 1008 hPa Calm   6.4 km/h 41 % 0 mm
18:55 24.6 °C 10.5 °C 1008 hPa Calm   9.7 km/h 41 % 0 mm
19:00 24.6 °C 10.5 °C 1008 hPa Calm   9.7 km/h 41 % 0 mm
19:05 24.7 °C 10.6 °C 1007.7 hPa Calm   9.7 km/h 41 % 0 mm
19:10 24.7 °C 10.2 °C 1007.7 hPa West 1.6 km/h 6.4 km/h 40 % 0 mm
19:15 24.6 °C 10.1 °C 1007.7 hPa Calm   3.2 km/h 40 % 0 mm
19:20 24.3 °C 10.2 °C 1008 hPa Calm   4.8 km/h 41 % 0 mm
19:25 24 °C 10.3 °C 1008 hPa Calm   4.8 km/h 42 % 0 mm
19:30 23.6 °C 9.9 °C 1008 hPa Calm   4.8 km/h 42 % 0 mm
19:35 23 °C 10.1 °C 1008 hPa Calm   3.2 km/h 44 % 0 mm
19:40 22.4 °C 9.9 °C 1008 hPa Calm   3.2 km/h 45 % 0 mm
19:45 21.9 °C 9.8 °C 1008 hPa Calm   1.6 km/h 46 % 0 mm
19:51 21.5 °C 9.7 °C 1008 hPa Calm   1.6 km/h 47 % 0 mm
19:56 21 °C 10.5 °C 1008.4 hPa Calm   1.6 km/h 51 % 0 mm
20:01 20.6 °C 10.7 °C 1008 hPa Calm   1.6 km/h 53 % 0 mm
20:06 20.2 °C 10.3 °C 1008 hPa Calm   1.6 km/h 53 % 0 mm
20:11 19.8 °C 10.5 °C 1008.4 hPa Calm   1.6 km/h 55 % 0 mm
20:16 19.7 °C 10.9 °C 1008.4 hPa Calm   1.6 km/h 57 % 0 mm
20:21 19.5 °C 10.5 °C 1008.4 hPa Calm   1.6 km/h 56 % 0 mm
20:26 19.3 °C 10.8 °C 1008.4 hPa WSW 1.6 km/h 1.6 km/h 58 % 0 mm
20:31 19.1 °C 10.9 °C 1008.4 hPa Calm   1.6 km/h 59 % 0 mm
20:36 18.8 °C 11.1 °C 1008.4 hPa Calm   1.6 km/h 61 % 0 mm
20:41 18.7 °C 11 °C 1008.4 hPa Calm   1.6 km/h 61 % 0 mm
20:46 18.5 °C 10.8 °C 1008.4 hPa Calm     61 % 0 mm
20:51 18.3 °C 11.4 °C 1008.4 hPa Calm     64 % 0 mm
20:56 18.2 °C 11.3 °C 1008.4 hPa Calm     64 % 0 mm
21:01 17.9 °C 11.2 °C 1008.4 hPa Calm     65 % 0 mm
21:06 17.7 °C 11.5 °C 1008.7 hPa Calm     67 % 0 mm
21:11 17.6 °C 11.4 °C 1008.7 hPa Calm     67 % 0 mm
21:16 17.4 °C 11.2 °C 1008.7 hPa Calm     67 % 0 mm
21:21 17.2 °C 11 °C 1008.7 hPa Calm     67 % 0 mm
21:26 17.1 °C 10.9 °C 1008.7 hPa Calm     67 % 0 mm
21:31 16.8 °C 11.1 °C 1009 hPa Calm     69 % 0 mm
21:36 16.8 °C 11.7 °C 1009 hPa Calm   1.6 km/h 72 % 0 mm
21:41 16.9 °C 11.8 °C 1009 hPa Calm   1.6 km/h 72 % 0 mm
21:46 16.6 °C 11.3 °C 1009.4 hPa Calm   1.6 km/h 71 % 0 mm
21:51 16.4 °C 11.8 °C 1009.4 hPa Calm     74 % 0 mm
21:56 16.4 °C 11.8 °C 1009.4 hPa Calm     74 % 0 mm
22:01 16.4 °C 12 °C 1009.4 hPa Calm     75 % 0 mm
22:05 16.4 °C 12.2 °C 1009.4 hPa Calm     76 % 0 mm
22:10 16.5 °C 12.3 °C 1009.4 hPa Calm     76 % 0 mm
22:15 16.4 °C 12.2 °C 1009.4 hPa Calm     76 % 0 mm
22:20 16.3 °C 12.3 °C 1009.4 hPa Calm     77 % 0 mm
22:25 16.1 °C 12.3 °C 1009.4 hPa Calm     78 % 0 mm
22:30 16.1 °C 12.5 °C 1009.4 hPa Calm     79 % 0 mm
22:35 15.9 °C 12.1 °C 1009.7 hPa Calm     78 % 0 mm
22:40 15.8 °C 12.2 °C 1009.7 hPa Calm     79 % 0 mm
22:45 15.7 °C 12.3 °C 1009.7 hPa Calm     80 % 0 mm
22:50 15.7 °C 12.3 °C 1009.4 hPa Calm   1.6 km/h 80 % 0 mm
22:55 15.8 °C 12 °C 1009.7 hPa SSE 1.6 km/h 3.2 km/h 78 % 0 mm
23:00 16.2 °C 12 °C 1009.7 hPa SSW 3.2 km/h 4.8 km/h 76 % 0 mm
23:05 16.6 °C 12.1 °C 1009.7 hPa South 1.6 km/h 4.8 km/h 75 % 0 mm
23:10 16.8 °C 11.9 °C 1009.4 hPa Calm   4.8 km/h 73 % 0 mm
23:15 17.1 °C 12 °C 1009.4 hPa South 1.6 km/h 4.8 km/h 72 % 0 mm
23:20 17.3 °C 12.2 °C 1009.4 hPa Calm   4.8 km/h 72 % 0 mm
23:25 17.3 °C 12.2 °C 1009.4 hPa Calm   3.2 km/h 72 % 0 mm
23:30 17.3 °C 12.2 °C 1009.4 hPa Calm   3.2 km/h 72 % 0 mm
23:35 17.2 °C 12.1 °C 1009.4 hPa Calm   1.6 km/h 72 % 0 mm
23:40 17 °C 12.1 °C 1009.4 hPa Calm   1.6 km/h 73 % 0 mm
23:45 16.8 °C 11.9 °C 1009.4 hPa Calm   1.6 km/h 73 % 0 mm
23:50 16.7 °C 11.8 °C 1009.4 hPa Calm   1.6 km/h 73 % 0 mm
23:55 16.7 °C 11.8 °C 1009.4 hPa Calm   1.6 km/h 73 % 0 mm
Spring, Texas: Villages of Bridgestone
Compliments of Weather Underground - 2.75 mb

Script developed by  Jim McMurry - jmcmurry@mwt.net Adapted for the template by  Wim van der Kuil - Leuven-Template.eu

You find our weather info also at:

UK Metoffice

WeatherCloud

Weather Underground

Mid-South Weather Network

AWEKAS

Citizen Weather Observer Program (CWOP)

HAMweather, WeatherForYou, PWS Weather

Equipment we use:

Weather-station
Davis Vantage Vue

Weather-program
Meteohub

Weather-server
Debian 7.9 x86 (Guest)

Provider
DreamHost

Davis Vantage Vue

Meteohub

Debian 7.9 x86 (Guest)

DreamHost